sensor_id;sensor_type;location;lat;lon;timestamp;P1;durP1;ratioP1;P2;durP2;ratioP2
20399;SDS011;10359;53.596;22.520;2023-02-26T00:01:29;4.60;;;2.83;;
20399;SDS011;10359;53.596;22.520;2023-02-26T00:04:20;4.00;;;3.00;;
20399;SDS011;10359;53.596;22.520;2023-02-26T00:07:09;5.43;;;3.23;;
20399;SDS011;10359;53.596;22.520;2023-02-26T00:09:59;2.87;;;2.43;;
20399;SDS011;10359;53.596;22.520;2023-02-26T00:12:50;4.83;;;3.23;;
20399;SDS011;10359;53.596;22.520;2023-02-26T00:15:40;3.60;;;2.77;;
20399;SDS011;10359;53.596;22.520;2023-02-26T00:18:33;3.97;;;3.00;;
20399;SDS011;10359;53.596;22.520;2023-02-26T00:21:23;3.83;;;2.80;;
20399;SDS011;10359;53.596;22.520;2023-02-26T00:24:14;4.27;;;2.93;;
20399;SDS011;10359;53.596;22.520;2023-02-26T00:27:04;4.03;;;2.40;;
20399;SDS011;10359;53.596;22.520;2023-02-26T00:29:54;5.30;;;3.03;;
20399;SDS011;10359;53.596;22.520;2023-02-26T00:32:44;4.30;;;3.50;;
20399;SDS011;10359;53.596;22.520;2023-02-26T00:35:36;5.10;;;4.00;;
20399;SDS011;10359;53.596;22.520;2023-02-26T00:38:26;5.50;;;3.67;;
20399;SDS011;10359;53.596;22.520;2023-02-26T00:41:20;4.13;;;3.73;;
20399;SDS011;10359;53.596;22.520;2023-02-26T00:44:10;4.97;;;3.67;;
20399;SDS011;10359;53.596;22.520;2023-02-26T00:47:02;4.17;;;3.07;;
20399;SDS011;10359;53.596;22.520;2023-02-26T00:50:02;3.83;;;3.10;;
20399;SDS011;10359;53.596;22.520;2023-02-26T00:53:02;5.57;;;4.23;;
20399;SDS011;10359;53.596;22.520;2023-02-26T00:56:00;6.30;;;3.97;;
20399;SDS011;10359;53.596;22.520;2023-02-26T00:58:49;4.27;;;3.33;;
20399;SDS011;10359;53.596;22.520;2023-02-26T01:01:39;3.70;;;2.77;;
20399;SDS011;10359;53.596;22.520;2023-02-26T01:04:29;6.33;;;4.50;;
20399;SDS011;10359;53.596;22.520;2023-02-26T01:07:21;2.93;;;2.10;;
20399;SDS011;10359;53.596;22.520;2023-02-26T01:10:14;7.27;;;3.70;;
20399;SDS011;10359;53.596;22.520;2023-02-26T01:13:04;5.03;;;3.93;;
20399;SDS011;10359;53.596;22.520;2023-02-26T01:15:54;5.77;;;3.20;;
20399;SDS011;10359;53.596;22.520;2023-02-26T01:18:49;5.00;;;3.53;;
20399;SDS011;10359;53.596;22.520;2023-02-26T01:21:45;5.50;;;4.10;;
20399;SDS011;10359;53.596;22.520;2023-02-26T01:24:38;4.40;;;3.47;;
20399;SDS011;10359;53.596;22.520;2023-02-26T01:27:30;5.97;;;4.07;;
20399;SDS011;10359;53.596;22.520;2023-02-26T01:30:21;4.00;;;3.40;;
20399;SDS011;10359;53.596;22.520;2023-02-26T01:33:13;5.50;;;3.90;;
20399;SDS011;10359;53.596;22.520;2023-02-26T01:36:11;6.37;;;4.17;;
20399;SDS011;10359;53.596;22.520;2023-02-26T01:39:10;6.93;;;4.60;;
20399;SDS011;10359;53.596;22.520;2023-02-26T01:42:04;6.33;;;4.50;;
20399;SDS011;10359;53.596;22.520;2023-02-26T01:45:09;6.03;;;4.17;;
20399;SDS011;10359;53.596;22.520;2023-02-26T01:48:02;5.43;;;3.70;;
20399;SDS011;10359;53.596;22.520;2023-02-26T01:50:54;4.57;;;3.57;;
20399;SDS011;10359;53.596;22.520;2023-02-26T01:53:44;3.27;;;2.50;;
20399;SDS011;10359;53.596;22.520;2023-02-26T01:56:34;2.93;;;2.67;;
20399;SDS011;10359;53.596;22.520;2023-02-26T01:59:24;1.70;;;1.60;;
20399;SDS011;10359;53.596;22.520;2023-02-26T02:02:17;4.80;;;2.40;;
20399;SDS011;10359;53.596;22.520;2023-02-26T02:05:11;3.50;;;2.40;;
20399;SDS011;10359;53.596;22.520;2023-02-26T02:08:04;3.53;;;2.60;;
20399;SDS011;10359;53.596;22.520;2023-02-26T02:10:54;3.93;;;2.97;;
20399;SDS011;10359;53.596;22.520;2023-02-26T02:13:51;3.63;;;2.60;;
20399;SDS011;10359;53.596;22.520;2023-02-26T02:16:51;4.77;;;3.40;;
20399;SDS011;10359;53.596;22.520;2023-02-26T02:19:58;3.20;;;2.90;;
20399;SDS011;10359;53.596;22.520;2023-02-26T02:23:10;5.80;;;3.53;;
20399;SDS011;10359;53.596;22.520;2023-02-26T02:26:25;4.53;;;3.23;;
20399;SDS011;10359;53.596;22.520;2023-02-26T02:32:55;4.23;;;2.83;;
20399;SDS011;10359;53.596;22.520;2023-02-26T02:35:48;4.80;;;3.40;;
20399;SDS011;10359;53.596;22.520;2023-02-26T02:38:41;4.13;;;3.40;;
20399;SDS011;10359;53.596;22.520;2023-02-26T02:41:37;4.70;;;3.40;;
20399;SDS011;10359;53.596;22.520;2023-02-26T02:44:31;4.90;;;3.50;;
20399;SDS011;10359;53.596;22.520;2023-02-26T02:47:25;5.07;;;3.77;;
20399;SDS011;10359;53.596;22.520;2023-02-26T02:50:21;3.83;;;2.70;;
20399;SDS011;10359;53.596;22.520;2023-02-26T02:53:17;4.80;;;3.50;;
20399;SDS011;10359;53.596;22.520;2023-02-26T02:56:11;5.87;;;3.57;;
20399;SDS011;10359;53.596;22.520;2023-02-26T02:59:06;4.00;;;2.93;;
20399;SDS011;10359;53.596;22.520;2023-02-26T03:02:04;5.27;;;3.43;;
20399;SDS011;10359;53.596;22.520;2023-02-26T03:04:57;3.60;;;3.00;;
20399;SDS011;10359;53.596;22.520;2023-02-26T03:07:51;4.70;;;3.57;;
20399;SDS011;10359;53.596;22.520;2023-02-26T03:10:43;4.10;;;2.90;;
20399;SDS011;10359;53.596;22.520;2023-02-26T03:13:33;4.07;;;2.63;;
20399;SDS011;10359;53.596;22.520;2023-02-26T03:16:28;5.13;;;3.50;;
20399;SDS011;10359;53.596;22.520;2023-02-26T03:19:37;3.20;;;2.50;;
20399;SDS011;10359;53.596;22.520;2023-02-26T03:22:38;4.00;;;3.10;;
20399;SDS011;10359;53.596;22.520;2023-02-26T03:25:37;2.93;;;2.40;;
20399;SDS011;10359;53.596;22.520;2023-02-26T03:28:34;3.10;;;2.47;;
20399;SDS011;10359;53.596;22.520;2023-02-26T03:31:30;3.13;;;2.50;;
20399;SDS011;10359;53.596;22.520;2023-02-26T03:34:25;3.57;;;2.20;;
20399;SDS011;10359;53.596;22.520;2023-02-26T03:37:20;3.80;;;3.43;;
20399;SDS011;10359;53.596;22.520;2023-02-26T03:40:15;4.20;;;3.00;;
20399;SDS011;10359;53.596;22.520;2023-02-26T03:43:10;3.50;;;3.00;;
20399;SDS011;10359;53.596;22.520;2023-02-26T03:46:05;3.63;;;3.00;;
20399;SDS011;10359;53.596;22.520;2023-02-26T03:49:01;4.30;;;2.60;;
20399;SDS011;10359;53.596;22.520;2023-02-26T03:51:54;2.20;;;1.63;;
20399;SDS011;10359;53.596;22.520;2023-02-26T03:54:48;2.53;;;2.27;;
20399;SDS011;10359;53.596;22.520;2023-02-26T03:57:43;4.03;;;2.63;;
20399;SDS011;10359;53.596;22.520;2023-02-26T04:00:35;4.77;;;3.00;;
20399;SDS011;10359;53.596;22.520;2023-02-26T04:03:29;4.40;;;3.30;;
20399;SDS011;10359;53.596;22.520;2023-02-26T04:06:23;3.50;;;2.80;;
20399;SDS011;10359;53.596;22.520;2023-02-26T04:09:14;3.37;;;2.67;;
20399;SDS011;10359;53.596;22.520;2023-02-26T04:12:04;3.67;;;2.70;;
20399;SDS011;10359;53.596;22.520;2023-02-26T04:14:54;3.87;;;3.10;;
20399;SDS011;10359;53.596;22.520;2023-02-26T04:17:47;2.90;;;2.60;;
20399;SDS011;10359;53.596;22.520;2023-02-26T04:20:36;3.23;;;2.00;;
20399;SDS011;10359;53.596;22.520;2023-02-26T04:23:26;6.17;;;2.43;;
20399;SDS011;10359;53.596;22.520;2023-02-26T04:26:16;2.97;;;2.20;;
20399;SDS011;10359;53.596;22.520;2023-02-26T04:29:05;2.20;;;1.83;;
20399;SDS011;10359;53.596;22.520;2023-02-26T04:31:55;4.60;;;2.50;;
20399;SDS011;10359;53.596;22.520;2023-02-26T04:34:47;3.33;;;2.50;;
20399;SDS011;10359;53.596;22.520;2023-02-26T04:37:36;3.80;;;2.43;;
20399;SDS011;10359;53.596;22.520;2023-02-26T04:40:26;2.80;;;2.23;;
20399;SDS011;10359;53.596;22.520;2023-02-26T04:43:16;3.07;;;1.73;;
20399;SDS011;10359;53.596;22.520;2023-02-26T04:46:06;5.40;;;1.77;;
20399;SDS011;10359;53.596;22.520;2023-02-26T04:48:56;1.57;;;1.47;;
20399;SDS011;10359;53.596;22.520;2023-02-26T04:51:48;2.30;;;2.10;;
20399;SDS011;10359;53.596;22.520;2023-02-26T04:54:38;4.23;;;2.83;;
20399;SDS011;10359;53.596;22.520;2023-02-26T04:57:28;3.50;;;3.17;;
20399;SDS011;10359;53.596;22.520;2023-02-26T05:00:18;3.00;;;2.07;;
20399;SDS011;10359;53.596;22.520;2023-02-26T05:03:08;2.00;;;1.80;;
20399;SDS011;10359;53.596;22.520;2023-02-26T05:05:59;2.57;;;2.00;;
20399;SDS011;10359;53.596;22.520;2023-02-26T05:08:51;2.60;;;2.37;;
20399;SDS011;10359;53.596;22.520;2023-02-26T05:11:40;2.13;;;1.67;;
20399;SDS011;10359;53.596;22.520;2023-02-26T05:14:30;4.00;;;2.83;;
20399;SDS011;10359;53.596;22.520;2023-02-26T05:17:20;3.57;;;2.40;;
20399;SDS011;10359;53.596;22.520;2023-02-26T05:20:10;2.47;;;2.27;;
20399;SDS011;10359;53.596;22.520;2023-02-26T05:23:01;3.83;;;2.93;;
20399;SDS011;10359;53.596;22.520;2023-02-26T05:25:54;4.70;;;2.77;;
20399;SDS011;10359;53.596;22.520;2023-02-26T05:28:44;5.20;;;3.17;;
20399;SDS011;10359;53.596;22.520;2023-02-26T05:31:34;4.10;;;2.90;;
20399;SDS011;10359;53.596;22.520;2023-02-26T05:34:24;6.77;;;3.10;;
20399;SDS011;10359;53.596;22.520;2023-02-26T05:37:13;5.13;;;3.77;;
20399;SDS011;10359;53.596;22.520;2023-02-26T05:40:03;4.67;;;3.57;;
20399;SDS011;10359;53.596;22.520;2023-02-26T05:42:57;4.53;;;3.07;;
20399;SDS011;10359;53.596;22.520;2023-02-26T05:45:48;4.87;;;3.33;;
20399;SDS011;10359;53.596;22.520;2023-02-26T05:48:38;4.33;;;2.97;;
20399;SDS011;10359;53.596;22.520;2023-02-26T05:51:30;4.53;;;3.20;;
20399;SDS011;10359;53.596;22.520;2023-02-26T05:54:20;4.37;;;3.13;;
20399;SDS011;10359;53.596;22.520;2023-02-26T05:57:09;3.77;;;3.33;;
20399;SDS011;10359;53.596;22.520;2023-02-26T06:00:00;5.67;;;3.17;;
20399;SDS011;10359;53.596;22.520;2023-02-26T06:02:51;5.83;;;3.50;;
20399;SDS011;10359;53.596;22.520;2023-02-26T06:05:41;5.40;;;3.43;;
20399;SDS011;10359;53.596;22.520;2023-02-26T06:08:31;6.30;;;3.17;;
20399;SDS011;10359;53.596;22.520;2023-02-26T06:11:21;4.83;;;3.17;;
20399;SDS011;10359;53.596;22.520;2023-02-26T06:14:10;5.67;;;3.00;;
20399;SDS011;10359;53.596;22.520;2023-02-26T06:17:02;5.83;;;4.30;;
20399;SDS011;10359;53.596;22.520;2023-02-26T06:19:51;5.57;;;3.63;;
20399;SDS011;10359;53.596;22.520;2023-02-26T06:22:41;4.93;;;3.30;;
20399;SDS011;10359;53.596;22.520;2023-02-26T06:25:31;5.17;;;3.87;;
20399;SDS011;10359;53.596;22.520;2023-02-26T06:28:20;6.77;;;4.50;;
20399;SDS011;10359;53.596;22.520;2023-02-26T06:31:11;5.57;;;4.47;;
20399;SDS011;10359;53.596;22.520;2023-02-26T06:34:02;4.87;;;3.70;;
20399;SDS011;10359;53.596;22.520;2023-02-26T06:36:52;6.30;;;4.30;;
20399;SDS011;10359;53.596;22.520;2023-02-26T06:39:41;6.87;;;4.03;;
20399;SDS011;10359;53.596;22.520;2023-02-26T06:42:31;5.93;;;3.93;;
20399;SDS011;10359;53.596;22.520;2023-02-26T06:45:21;5.23;;;4.13;;
20399;SDS011;10359;53.596;22.520;2023-02-26T06:48:11;5.60;;;3.03;;
20399;SDS011;10359;53.596;22.520;2023-02-26T06:51:02;3.90;;;3.00;;
20399;SDS011;10359;53.596;22.520;2023-02-26T06:53:53;5.60;;;3.80;;
20399;SDS011;10359;53.596;22.520;2023-02-26T06:56:43;5.27;;;4.03;;
20399;SDS011;10359;53.596;22.520;2023-02-26T06:59:33;4.40;;;3.40;;
20399;SDS011;10359;53.596;22.520;2023-02-26T07:02:23;5.20;;;3.60;;
20399;SDS011;10359;53.596;22.520;2023-02-26T07:05:12;5.43;;;3.50;;
20399;SDS011;10359;53.596;22.520;2023-02-26T07:08:04;5.83;;;3.43;;
20399;SDS011;10359;53.596;22.520;2023-02-26T07:10:53;5.47;;;4.07;;
20399;SDS011;10359;53.596;22.520;2023-02-26T07:13:43;5.67;;;3.67;;
20399;SDS011;10359;53.596;22.520;2023-02-26T07:16:33;6.03;;;4.20;;
20399;SDS011;10359;53.596;22.520;2023-02-26T07:19:23;6.47;;;3.83;;
20399;SDS011;10359;53.596;22.520;2023-02-26T07:22:13;5.57;;;4.37;;
20399;SDS011;10359;53.596;22.520;2023-02-26T07:25:08;6.83;;;4.53;;
20399;SDS011;10359;53.596;22.520;2023-02-26T07:27:58;10.77;;;5.47;;
20399;SDS011;10359;53.596;22.520;2023-02-26T07:30:47;8.33;;;5.60;;
20399;SDS011;10359;53.596;22.520;2023-02-26T07:33:37;8.33;;;5.37;;
20399;SDS011;10359;53.596;22.520;2023-02-26T07:36:27;7.17;;;4.70;;
20399;SDS011;10359;53.596;22.520;2023-02-26T07:39:16;8.90;;;4.97;;
20399;SDS011;10359;53.596;22.520;2023-02-26T07:42:08;7.80;;;5.10;;
20399;SDS011;10359;53.596;22.520;2023-02-26T07:44:57;7.63;;;5.43;;
20399;SDS011;10359;53.596;22.520;2023-02-26T07:47:47;9.27;;;5.50;;
20399;SDS011;10359;53.596;22.520;2023-02-26T07:50:37;8.67;;;5.90;;
20399;SDS011;10359;53.596;22.520;2023-02-26T07:53:26;8.57;;;5.10;;
20399;SDS011;10359;53.596;22.520;2023-02-26T07:56:16;7.20;;;4.90;;
20399;SDS011;10359;53.596;22.520;2023-02-26T07:59:08;8.40;;;5.33;;
20399;SDS011;10359;53.596;22.520;2023-02-26T08:01:58;8.10;;;5.00;;
20399;SDS011;10359;53.596;22.520;2023-02-26T08:04:48;9.10;;;5.20;;
20399;SDS011;10359;53.596;22.520;2023-02-26T08:07:37;8.60;;;5.00;;
20399;SDS011;10359;53.596;22.520;2023-02-26T08:10:27;6.67;;;4.60;;
20399;SDS011;10359;53.596;22.520;2023-02-26T08:13:17;7.33;;;4.97;;
20399;SDS011;10359;53.596;22.520;2023-02-26T08:16:08;7.30;;;4.33;;
20399;SDS011;10359;53.596;22.520;2023-02-26T08:18:58;7.23;;;4.17;;
20399;SDS011;10359;53.596;22.520;2023-02-26T08:21:48;8.37;;;4.27;;
20399;SDS011;10359;53.596;22.520;2023-02-26T08:24:38;7.57;;;4.20;;
20399;SDS011;10359;53.596;22.520;2023-02-26T08:27:27;5.30;;;4.00;;
20399;SDS011;10359;53.596;22.520;2023-02-26T08:30:17;5.50;;;3.70;;
20399;SDS011;10359;53.596;22.520;2023-02-26T08:33:08;4.50;;;2.90;;
20399;SDS011;10359;53.596;22.520;2023-02-26T08:35:58;5.90;;;3.30;;
20399;SDS011;10359;53.596;22.520;2023-02-26T08:38:48;4.37;;;3.30;;
20399;SDS011;10359;53.596;22.520;2023-02-26T08:41:37;5.23;;;3.10;;
20399;SDS011;10359;53.596;22.520;2023-02-26T08:44:27;5.90;;;3.07;;
20399;SDS011;10359;53.596;22.520;2023-02-26T08:47:17;5.37;;;3.53;;
20399;SDS011;10359;53.596;22.520;2023-02-26T08:50:16;2.87;;;2.30;;
20399;SDS011;10359;53.596;22.520;2023-02-26T08:53:06;5.17;;;2.30;;
20399;SDS011;10359;53.596;22.520;2023-02-26T08:55:55;3.67;;;2.40;;
20399;SDS011;10359;53.596;22.520;2023-02-26T08:58:45;2.37;;;1.37;;
20399;SDS011;10359;53.596;22.520;2023-02-26T09:01:35;3.63;;;2.50;;
20399;SDS011;10359;53.596;22.520;2023-02-26T09:04:24;5.33;;;2.67;;
20399;SDS011;10359;53.596;22.520;2023-02-26T09:07:18;3.87;;;2.53;;
20399;SDS011;10359;53.596;22.520;2023-02-26T09:10:08;6.50;;;3.40;;
20399;SDS011;10359;53.596;22.520;2023-02-26T09:12:59;5.33;;;3.27;;
20399;SDS011;10359;53.596;22.520;2023-02-26T09:15:49;4.70;;;3.37;;
20399;SDS011;10359;53.596;22.520;2023-02-26T09:18:38;3.40;;;2.90;;
20399;SDS011;10359;53.596;22.520;2023-02-26T09:21:29;7.30;;;3.53;;
20399;SDS011;10359;53.596;22.520;2023-02-26T09:24:32;4.27;;;3.03;;
20399;SDS011;10359;53.596;22.520;2023-02-26T09:27:30;5.33;;;2.73;;
20399;SDS011;10359;53.596;22.520;2023-02-26T09:30:26;3.37;;;2.60;;
20399;SDS011;10359;53.596;22.520;2023-02-26T09:33:16;4.60;;;3.20;;
20399;SDS011;10359;53.596;22.520;2023-02-26T09:36:06;3.50;;;2.60;;
20399;SDS011;10359;53.596;22.520;2023-02-26T09:38:56;3.63;;;2.30;;
20399;SDS011;10359;53.596;22.520;2023-02-26T09:41:47;3.67;;;2.20;;
20399;SDS011;10359;53.596;22.520;2023-02-26T09:44:40;2.90;;;2.30;;
20399;SDS011;10359;53.596;22.520;2023-02-26T09:47:32;4.37;;;2.40;;
20399;SDS011;10359;53.596;22.520;2023-02-26T09:50:31;4.30;;;2.60;;
20399;SDS011;10359;53.596;22.520;2023-02-26T09:53:27;2.27;;;1.80;;
20399;SDS011;10359;53.596;22.520;2023-02-26T09:56:20;3.17;;;2.30;;
20399;SDS011;10359;53.596;22.520;2023-02-26T09:59:14;2.87;;;1.67;;
20399;SDS011;10359;53.596;22.520;2023-02-26T10:02:04;2.80;;;1.77;;
20399;SDS011;10359;53.596;22.520;2023-02-26T10:05:09;3.73;;;2.53;;
20399;SDS011;10359;53.596;22.520;2023-02-26T10:08:06;4.10;;;3.10;;
20399;SDS011;10359;53.596;22.520;2023-02-26T10:11:04;4.13;;;2.37;;
20399;SDS011;10359;53.596;22.520;2023-02-26T10:14:11;5.23;;;2.93;;
20399;SDS011;10359;53.596;22.520;2023-02-26T10:17:07;4.60;;;2.63;;
20399;SDS011;10359;53.596;22.520;2023-02-26T10:20:07;3.53;;;2.40;;
20399;SDS011;10359;53.596;22.520;2023-02-26T10:23:05;5.23;;;2.93;;
20399;SDS011;10359;53.596;22.520;2023-02-26T10:26:02;6.97;;;3.30;;
20399;SDS011;10359;53.596;22.520;2023-02-26T10:28:58;4.53;;;2.90;;
20399;SDS011;10359;53.596;22.520;2023-02-26T10:31:58;3.13;;;2.17;;
20399;SDS011;10359;53.596;22.520;2023-02-26T10:34:57;6.10;;;3.10;;
20399;SDS011;10359;53.596;22.520;2023-02-26T10:37:55;4.70;;;2.67;;
20399;SDS011;10359;53.596;22.520;2023-02-26T10:40:48;4.37;;;2.93;;
20399;SDS011;10359;53.596;22.520;2023-02-26T10:43:42;5.43;;;2.57;;
20399;SDS011;10359;53.596;22.520;2023-02-26T10:46:39;4.57;;;3.00;;
20399;SDS011;10359;53.596;22.520;2023-02-26T10:49:53;4.07;;;2.30;;
20399;SDS011;10359;53.596;22.520;2023-02-26T10:52:49;4.30;;;2.57;;
20399;SDS011;10359;53.596;22.520;2023-02-26T10:55:40;4.77;;;2.97;;
20399;SDS011;10359;53.596;22.520;2023-02-26T10:58:34;3.73;;;2.90;;
20399;SDS011;10359;53.596;22.520;2023-02-26T11:01:25;2.87;;;2.30;;
20399;SDS011;10359;53.596;22.520;2023-02-26T11:04:18;3.60;;;2.83;;
20399;SDS011;10359;53.596;22.520;2023-02-26T11:07:12;2.93;;;2.33;;
20399;SDS011;10359;53.596;22.520;2023-02-26T11:10:02;2.37;;;1.47;;
20399;SDS011;10359;53.596;22.520;2023-02-26T11:12:53;4.90;;;2.03;;
20399;SDS011;10359;53.596;22.520;2023-02-26T11:15:44;3.57;;;1.47;;
20399;SDS011;10359;53.596;22.520;2023-02-26T11:18:38;2.10;;;1.70;;
20399;SDS011;10359;53.596;22.520;2023-02-26T11:21:33;3.57;;;1.97;;
20399;SDS011;10359;53.596;22.520;2023-02-26T11:24:29;3.00;;;1.97;;
20399;SDS011;10359;53.596;22.520;2023-02-26T11:27:24;3.03;;;2.50;;
20399;SDS011;10359;53.596;22.520;2023-02-26T11:30:19;4.30;;;2.80;;
20399;SDS011;10359;53.596;22.520;2023-02-26T11:33:14;4.07;;;2.30;;
20399;SDS011;10359;53.596;22.520;2023-02-26T11:36:07;3.70;;;2.27;;
20399;SDS011;10359;53.596;22.520;2023-02-26T11:39:02;3.83;;;2.73;;
20399;SDS011;10359;53.596;22.520;2023-02-26T11:41:58;7.10;;;2.60;;
20399;SDS011;10359;53.596;22.520;2023-02-26T11:44:50;4.00;;;2.30;;
20399;SDS011;10359;53.596;22.520;2023-02-26T11:47:40;3.37;;;2.70;;
20399;SDS011;10359;53.596;22.520;2023-02-26T11:50:33;3.93;;;2.53;;
20399;SDS011;10359;53.596;22.520;2023-02-26T11:53:30;3.50;;;2.53;;
20399;SDS011;10359;53.596;22.520;2023-02-26T11:56:24;2.30;;;1.77;;
20399;SDS011;10359;53.596;22.520;2023-02-26T11:59:19;3.07;;;2.40;;
20399;SDS011;10359;53.596;22.520;2023-02-26T12:02:11;2.90;;;2.27;;
20399;SDS011;10359;53.596;22.520;2023-02-26T12:05:04;4.27;;;2.90;;
20399;SDS011;10359;53.596;22.520;2023-02-26T12:07:55;14.20;;;8.47;;
20399;SDS011;10359;53.596;22.520;2023-02-26T12:10:50;4.37;;;2.70;;
20399;SDS011;10359;53.596;22.520;2023-02-26T12:13:57;3.27;;;2.43;;
20399;SDS011;10359;53.596;22.520;2023-02-26T12:17:00;3.90;;;2.93;;
20399;SDS011;10359;53.596;22.520;2023-02-26T12:20:02;3.07;;;2.70;;
20399;SDS011;10359;53.596;22.520;2023-02-26T12:23:12;3.20;;;2.43;;
20399;SDS011;10359;53.596;22.520;2023-02-26T12:26:23;4.20;;;2.90;;
20399;SDS011;10359;53.596;22.520;2023-02-26T12:32:43;5.73;;;3.60;;
20399;SDS011;10359;53.596;22.520;2023-02-26T12:35:46;6.60;;;2.97;;
20399;SDS011;10359;53.596;22.520;2023-02-26T12:38:50;3.30;;;2.50;;
20399;SDS011;10359;53.596;22.520;2023-02-26T12:41:53;2.90;;;1.90;;
20399;SDS011;10359;53.596;22.520;2023-02-26T12:44:54;2.37;;;1.73;;
20399;SDS011;10359;53.596;22.520;2023-02-26T12:51:32;3.20;;;1.53;;
20399;SDS011;10359;53.596;22.520;2023-02-26T12:54:41;1.67;;;1.57;;
20399;SDS011;10359;53.596;22.520;2023-02-26T12:57:53;2.43;;;1.87;;
20399;SDS011;10359;53.596;22.520;2023-02-26T13:01:07;3.27;;;1.90;;
20399;SDS011;10359;53.596;22.520;2023-02-26T13:04:17;2.37;;;1.80;;
20399;SDS011;10359;53.596;22.520;2023-02-26T13:10:51;2.87;;;1.77;;
20399;SDS011;10359;53.596;22.520;2023-02-26T13:13:52;2.83;;;1.50;;
20399;SDS011;10359;53.596;22.520;2023-02-26T13:16:56;2.07;;;1.43;;
20399;SDS011;10359;53.596;22.520;2023-02-26T13:19:57;2.67;;;1.80;;
20399;SDS011;10359;53.596;22.520;2023-02-26T13:22:53;1.70;;;1.60;;
20399;SDS011;10359;53.596;22.520;2023-02-26T13:25:47;2.10;;;1.57;;
20399;SDS011;10359;53.596;22.520;2023-02-26T13:28:43;2.23;;;1.67;;
20399;SDS011;10359;53.596;22.520;2023-02-26T13:31:42;4.03;;;1.80;;
20399;SDS011;10359;53.596;22.520;2023-02-26T13:34:38;2.47;;;1.90;;
20399;SDS011;10359;53.596;22.520;2023-02-26T13:37:36;2.00;;;1.80;;
20399;SDS011;10359;53.596;22.520;2023-02-26T13:40:36;3.03;;;1.40;;
20399;SDS011;10359;53.596;22.520;2023-02-26T13:43:40;2.90;;;1.40;;
20399;SDS011;10359;53.596;22.520;2023-02-26T13:46:53;1.67;;;1.30;;
20399;SDS011;10359;53.596;22.520;2023-02-26T13:49:59;7.77;;;3.20;;
20399;SDS011;10359;53.596;22.520;2023-02-26T13:53:45;7.87;;;2.60;;
20399;SDS011;10359;53.596;22.520;2023-02-26T13:56:51;6.40;;;2.60;;
20399;SDS011;10359;53.596;22.520;2023-02-26T13:59:58;7.80;;;3.00;;
20399;SDS011;10359;53.596;22.520;2023-02-26T14:03:09;4.37;;;2.30;;
20399;SDS011;10359;53.596;22.520;2023-02-26T14:06:07;6.27;;;2.57;;
20399;SDS011;10359;53.596;22.520;2023-02-26T14:12:42;3.43;;;1.80;;
20399;SDS011;10359;53.596;22.520;2023-02-26T14:15:52;2.67;;;1.90;;
20399;SDS011;10359;53.596;22.520;2023-02-26T14:18:50;16.80;;;6.00;;
20399;SDS011;10359;53.596;22.520;2023-02-26T14:21:50;5.27;;;2.40;;
20399;SDS011;10359;53.596;22.520;2023-02-26T14:24:50;11.87;;;3.60;;
20399;SDS011;10359;53.596;22.520;2023-02-26T14:27:47;10.40;;;3.30;;
20399;SDS011;10359;53.596;22.520;2023-02-26T14:30:41;3.17;;;2.00;;
20399;SDS011;10359;53.596;22.520;2023-02-26T14:33:42;4.80;;;2.00;;
20399;SDS011;10359;53.596;22.520;2023-02-26T14:36:40;3.63;;;1.93;;
20399;SDS011;10359;53.596;22.520;2023-02-26T14:39:36;3.87;;;1.40;;
20399;SDS011;10359;53.596;22.520;2023-02-26T14:42:36;1.97;;;1.40;;
20399;SDS011;10359;53.596;22.520;2023-02-26T14:45:31;3.50;;;1.30;;
20399;SDS011;10359;53.596;22.520;2023-02-26T14:48:28;1.50;;;1.40;;
20399;SDS011;10359;53.596;22.520;2023-02-26T14:51:22;2.90;;;1.50;;
20399;SDS011;10359;53.596;22.520;2023-02-26T14:54:37;1.33;;;1.17;;
20399;SDS011;10359;53.596;22.520;2023-02-26T14:57:48;3.90;;;1.73;;
20399;SDS011;10359;53.596;22.520;2023-02-26T15:00:48;1.87;;;1.47;;
20399;SDS011;10359;53.596;22.520;2023-02-26T15:03:50;3.87;;;1.70;;
20399;SDS011;10359;53.596;22.520;2023-02-26T15:07:12;1.77;;;1.47;;
20399;SDS011;10359;53.596;22.520;2023-02-26T15:10:23;1.50;;;1.40;;
20399;SDS011;10359;53.596;22.520;2023-02-26T15:13:34;2.70;;;1.40;;
20399;SDS011;10359;53.596;22.520;2023-02-26T15:16:48;4.50;;;1.47;;
20399;SDS011;10359;53.596;22.520;2023-02-26T15:19:50;3.33;;;1.83;;
20399;SDS011;10359;53.596;22.520;2023-02-26T15:23:00;3.63;;;1.93;;
20399;SDS011;10359;53.596;22.520;2023-02-26T15:26:00;4.87;;;1.97;;
20399;SDS011;10359;53.596;22.520;2023-02-26T15:28:57;2.87;;;1.90;;
20399;SDS011;10359;53.596;22.520;2023-02-26T15:31:52;3.77;;;2.07;;
20399;SDS011;10359;53.596;22.520;2023-02-26T15:34:46;5.00;;;2.43;;
20399;SDS011;10359;53.596;22.520;2023-02-26T15:37:38;4.40;;;2.00;;
20399;SDS011;10359;53.596;22.520;2023-02-26T15:40:33;3.17;;;2.07;;
20399;SDS011;10359;53.596;22.520;2023-02-26T15:43:32;3.40;;;2.40;;
20399;SDS011;10359;53.596;22.520;2023-02-26T15:46:29;3.50;;;2.30;;
20399;SDS011;10359;53.596;22.520;2023-02-26T15:49:24;4.13;;;2.10;;
20399;SDS011;10359;53.596;22.520;2023-02-26T15:52:18;5.70;;;2.20;;
20399;SDS011;10359;53.596;22.520;2023-02-26T15:55:13;4.73;;;2.77;;
20399;SDS011;10359;53.596;22.520;2023-02-26T15:58:06;5.40;;;2.43;;
20399;SDS011;10359;53.596;22.520;2023-02-26T16:01:01;3.43;;;2.40;;
20399;SDS011;10359;53.596;22.520;2023-02-26T16:03:57;5.83;;;2.40;;
20399;SDS011;10359;53.596;22.520;2023-02-26T16:06:52;4.87;;;2.40;;
20399;SDS011;10359;53.596;22.520;2023-02-26T16:09:45;4.13;;;2.50;;
20399;SDS011;10359;53.596;22.520;2023-02-26T16:12:39;3.57;;;2.23;;
20399;SDS011;10359;53.596;22.520;2023-02-26T16:15:36;4.70;;;3.00;;
20399;SDS011;10359;53.596;22.520;2023-02-26T16:18:29;3.50;;;2.23;;
20399;SDS011;10359;53.596;22.520;2023-02-26T16:21:27;3.63;;;2.13;;
20399;SDS011;10359;53.596;22.520;2023-02-26T16:24:24;6.13;;;2.57;;
20399;SDS011;10359;53.596;22.520;2023-02-26T16:27:18;5.70;;;2.83;;
20399;SDS011;10359;53.596;22.520;2023-02-26T16:30:13;4.57;;;2.90;;
20399;SDS011;10359;53.596;22.520;2023-02-26T16:33:13;5.50;;;2.97;;
20399;SDS011;10359;53.596;22.520;2023-02-26T16:36:09;5.37;;;2.80;;
20399;SDS011;10359;53.596;22.520;2023-02-26T16:43:47;5.97;;;3.00;;
20399;SDS011;10359;53.596;22.520;2023-02-26T16:46:43;5.97;;;3.40;;
20399;SDS011;10359;53.596;22.520;2023-02-26T16:49:39;8.17;;;4.00;;
20399;SDS011;10359;53.596;22.520;2023-02-26T16:52:32;7.60;;;4.13;;
20399;SDS011;10359;53.596;22.520;2023-02-26T16:55:26;7.70;;;4.43;;
20399;SDS011;10359;53.596;22.520;2023-02-26T16:58:21;7.03;;;4.53;;
20399;SDS011;10359;53.596;22.520;2023-02-26T17:01:17;9.27;;;5.27;;
20399;SDS011;10359;53.596;22.520;2023-02-26T17:04:14;6.60;;;4.47;;
20399;SDS011;10359;53.596;22.520;2023-02-26T17:07:15;9.00;;;5.20;;
20399;SDS011;10359;53.596;22.520;2023-02-26T17:10:17;7.50;;;5.10;;
20399;SDS011;10359;53.596;22.520;2023-02-26T17:13:16;9.83;;;4.90;;
20399;SDS011;10359;53.596;22.520;2023-02-26T17:16:11;9.00;;;5.03;;
20399;SDS011;10359;53.596;22.520;2023-02-26T17:19:08;10.73;;;5.90;;
20399;SDS011;10359;53.596;22.520;2023-02-26T17:22:01;11.37;;;6.47;;
20399;SDS011;10359;53.596;22.520;2023-02-26T17:24:54;10.17;;;6.17;;
20399;SDS011;10359;53.596;22.520;2023-02-26T17:27:46;9.73;;;5.87;;
20399;SDS011;10359;53.596;22.520;2023-02-26T17:30:44;10.27;;;5.97;;
20399;SDS011;10359;53.596;22.520;2023-02-26T17:33:35;15.07;;;7.80;;
20399;SDS011;10359;53.596;22.520;2023-02-26T17:36:34;11.37;;;5.97;;
20399;SDS011;10359;53.596;22.520;2023-02-26T17:39:33;12.23;;;6.40;;